createdAt,value
2024-03-11T00:01:07.427Z,99892.69
2024-03-11T00:06:08.985Z,99889.78
2024-03-11T00:11:12.955Z,99909.88
2024-03-11T00:16:14.582Z,99895.47
2024-03-11T00:21:16.189Z,99881.22
2024-03-11T00:26:17.755Z,99900.28
2024-03-11T00:31:19.611Z,99889.78
2024-03-11T00:36:21.825Z,99895.78
2024-03-11T00:41:23.384Z,99899.78
2024-03-11T00:46:24.883Z,99891.13
2024-03-11T00:51:26.420Z,99883.34
2024-03-11T00:56:28.065Z,99864.31
2024-03-11T01:01:29.620Z,99883.28
2024-03-11T01:06:31.188Z,99884.22
2024-03-11T01:11:33.218Z,99895.72
2024-03-11T01:16:38.169Z,99879.78
2024-03-11T01:21:39.850Z,99882.66
2024-03-11T01:26:41.448Z,99879.53
2024-03-11T01:31:43.756Z,99887.72
2024-03-11T01:36:45.270Z,99887.28
2024-03-11T01:41:46.792Z,99887.03
2024-03-11T01:46:48.635Z,99883.25
2024-03-11T01:51:50.565Z,99868.63
2024-03-11T01:56:52.157Z,99888.63
2024-03-11T02:01:54.220Z,99870.56
2024-03-11T02:06:55.721Z,99867.00
2024-03-11T02:11:57.488Z,99841.03
2024-03-11T02:16:59.873Z,99865.69
2024-03-11T02:22:03.803Z,99868.50
2024-03-11T02:27:05.745Z,99849.22
2024-03-11T02:32:07.366Z,99864.28
2024-03-11T02:37:08.913Z,99843.97
2024-03-11T02:42:10.566Z,99850.66
2024-03-11T02:47:12.137Z,99831.53
2024-03-11T02:52:13.657Z,99828.84
2024-03-11T02:57:15.232Z,99835.13
2024-03-11T03:02:24.213Z,99836.66
2024-03-11T03:07:26.835Z,99835.00
2024-03-11T03:12:30.707Z,99835.72
2024-03-11T03:17:32.348Z,99818.31
2024-03-11T03:22:33.978Z,99824.34
2024-03-11T03:27:36.337Z,99837.38
2024-03-11T03:32:38.796Z,99829.28
2024-03-11T03:37:41.268Z,99828.31
2024-03-11T03:42:44.254Z,99823.94
2024-03-11T03:47:46.691Z,99839.75
2024-03-11T03:52:48.311Z,99824.03
2024-03-11T03:57:49.835Z,99833.59
2024-03-11T04:02:52.159Z,99826.44
2024-03-11T04:07:53.677Z,99827.81
2024-03-11T04:12:56.337Z,99835.03
2024-03-11T04:17:58.796Z,99833.31
2024-03-11T04:23:00.527Z,99830.34
2024-03-11T04:28:03.265Z,99825.34
2024-03-11T04:33:05.102Z,99831.56
2024-03-11T04:38:09.312Z,99838.56
2024-03-11T04:43:11.331Z,99824.44
2024-03-11T04:48:14.723Z,99844.53
2024-03-11T04:53:19.331Z,99826.78
2024-03-11T04:58:20.932Z,99827.34
2024-03-11T05:03:22.607Z,99815.91
2024-03-11T05:08:24.152Z,99811.88
2024-03-11T05:13:25.729Z,99809.03
2024-03-11T05:18:27.741Z,99816.31
2024-03-11T05:23:29.437Z,99805.91
2024-03-11T05:28:30.978Z,99816.16
2024-03-11T05:33:32.512Z,99818.59
2024-03-11T05:38:35.339Z,99825.25
2024-03-11T05:43:37.039Z,99839.69
2024-03-11T05:48:40.265Z,99833.78
2024-03-11T05:53:42.190Z,99841.47
2024-03-11T05:58:44.124Z,99835.91
2024-03-11T06:03:45.653Z,99853.09
2024-03-11T06:08:47.424Z,99855.38
2024-03-11T06:13:49.027Z,99854.03
2024-03-11T06:18:50.907Z,99866.06
2024-03-11T06:23:52.830Z,99851.56
2024-03-11T06:28:54.391Z,99864.78
2024-03-11T06:33:56.995Z,99858.22
2024-03-11T06:38:59.317Z,99856.31
2024-03-11T06:44:01.846Z,99866.28
2024-03-11T06:49:03.702Z,99872.72
2024-03-11T06:54:05.865Z,99851.97
2024-03-11T06:59:07.512Z,99860.06
2024-03-11T07:04:12.229Z,99864.50
2024-03-11T07:09:13.742Z,99860.78
2024-03-11T07:14:15.887Z,99860.31
2024-03-11T07:19:18.573Z,99891.31
2024-03-11T07:24:20.583Z,99868.69
2024-03-11T07:29:23.508Z,99875.03
2024-03-11T07:34:25.148Z,99868.09
2024-03-11T07:39:26.641Z,99867.75
2024-03-11T07:44:29.202Z,99871.63
2024-03-11T07:49:30.770Z,99886.56
2024-03-11T07:54:32.272Z,99884.72
2024-03-11T07:59:34.178Z,99885.50
2024-03-11T08:04:36.394Z,99883.00
2024-03-11T08:09:39.060Z,99887.19
2024-03-11T08:14:40.598Z,99886.31
2024-03-11T08:19:42.097Z,99885.81
2024-03-11T08:24:44.228Z,99897.00
2024-03-11T08:29:45.764Z,99898.81
2024-03-11T08:34:47.312Z,99894.47
2024-03-11T08:39:52.659Z,99914.09
2024-03-11T08:44:54.984Z,99908.94
2024-03-11T08:49:56.649Z,99912.59
2024-03-11T08:54:58.242Z,99923.00
2024-03-11T09:00:02.066Z,99921.00
2024-03-11T09:05:04.720Z,99919.22
2024-03-11T09:10:08.675Z,99926.53
2024-03-11T09:15:16.724Z,99935.25
2024-03-11T09:20:21.531Z,99936.06
2024-03-11T09:25:25.232Z,99947.75
2024-03-11T09:30:30.163Z,99938.97
2024-03-11T09:35:33.101Z,99953.22
2024-03-11T09:40:34.687Z,99951.63
2024-03-11T09:45:37.070Z,99953.84
2024-03-11T09:50:42.567Z,99961.69
2024-03-11T09:55:45.862Z,99953.13
2024-03-11T10:00:50.383Z,99971.13
2024-03-11T10:06:00.234Z,99964.22
2024-03-11T10:11:16.858Z,99970.28
2024-03-11T10:16:19.853Z,99971.16
2024-03-11T10:21:21.848Z,99976.16
2024-03-11T10:26:26.623Z,99973.75
2024-03-11T10:31:29.301Z,99960.19
2024-03-11T10:36:31.179Z,99960.41
2024-03-11T10:41:32.741Z,99968.91
2024-03-11T10:46:36.152Z,99978.31
2024-03-11T10:51:37.674Z,99962.22
2024-03-11T10:56:42.121Z,99973.31
2024-03-11T11:01:46.132Z,99976.91
2024-03-11T11:06:48.327Z,99992.78
2024-03-11T11:11:52.323Z,99991.06
2024-03-11T11:16:53.866Z,99996.81
2024-03-11T11:21:55.764Z,99984.63
2024-03-11T11:27:02.727Z,99976.81
2024-03-11T11:32:12.341Z,99973.22
2024-03-11T11:37:20.441Z,99983.91
2024-03-11T11:42:39.037Z,99989.09
2024-03-11T11:47:40.714Z,100004.41
2024-03-11T11:52:45.395Z,100017.06
2024-03-11T11:57:47.679Z,100018.25
2024-03-11T12:02:52.501Z,100024.66
2024-03-11T12:07:55.733Z,100021.63
2024-03-11T12:12:57.388Z,100023.28
2024-03-11T12:17:59.270Z,100025.41
2024-03-11T12:23:01.856Z,100021.47
2024-03-11T12:28:09.136Z,100029.53
2024-03-11T12:33:11.597Z,100034.91
2024-03-11T12:38:14.425Z,100033.75
2024-03-11T12:43:23.030Z,100031.91
2024-03-11T12:48:25.864Z,100026.34
2024-03-11T12:53:28.918Z,100033.28
2024-03-11T12:58:31.491Z,100039.88
2024-03-11T13:03:33.144Z,100035.63
2024-03-11T13:08:34.957Z,100034.41
2024-03-11T13:13:40.727Z,100055.88
2024-03-11T13:18:42.430Z,100042.97
2024-03-11T13:23:44.446Z,100044.41
2024-03-11T13:28:47.539Z,100040.63
2024-03-11T13:33:49.108Z,100049.00
2024-03-11T13:38:50.641Z,100056.69
2024-03-11T13:43:52.147Z,100068.22
2024-03-11T13:48:53.721Z,100071.75
2024-03-11T13:53:55.583Z,100066.06
2024-03-11T13:58:57.785Z,100082.06
2024-03-11T14:04:00.245Z,100077.72
2024-03-11T14:09:01.839Z,100080.72
2024-03-11T14:14:03.442Z,100092.75
2024-03-11T14:19:07.793Z,100094.19
2024-03-11T14:24:12.593Z,100104.19
2024-03-11T14:29:16.810Z,100106.81
2024-03-11T14:34:19.417Z,100097.34
2024-03-11T14:39:21.903Z,100104.53
2024-03-11T14:44:23.504Z,100104.81
2024-03-11T14:49:25.113Z,100104.03
2024-03-11T14:54:27.466Z,100121.31
2024-03-11T14:59:32.556Z,100118.78
2024-03-11T15:04:34.082Z,100119.63
2024-03-11T15:09:42.893Z,100125.66
2024-03-11T15:14:44.461Z,100121.78
2024-03-11T15:19:46.218Z,100143.38
2024-03-11T15:24:47.766Z,100133.28
2024-03-11T15:29:49.445Z,100136.25
2024-03-11T15:34:53.920Z,100140.03
2024-03-11T15:39:55.502Z,100141.22
2024-03-11T15:44:57.696Z,100134.25
2024-03-11T15:49:59.206Z,100139.81
2024-03-11T15:55:00.787Z,100139.97
2024-03-11T16:00:02.371Z,100146.34
2024-03-11T16:05:03.980Z,100162.78
2024-03-11T16:10:15.488Z,100159.09
2024-03-11T16:15:20.554Z,100154.41
2024-03-11T16:20:25.198Z,100172.19
2024-03-11T16:25:31.047Z,100173.88
2024-03-11T16:30:32.935Z,100184.75
2024-03-11T16:35:37.381Z,100183.34
2024-03-11T16:40:40.134Z,100185.16
2024-03-11T16:45:46.840Z,100199.91
2024-03-11T16:50:48.418Z,100199.25
2024-03-11T16:55:51.874Z,100211.50
2024-03-11T17:00:53.891Z,100218.59
2024-03-11T17:05:56.928Z,100220.59
2024-03-11T17:10:58.668Z,100222.47
2024-03-11T17:16:01.852Z,100230.59
2024-03-11T17:21:04.577Z,100241.84
2024-03-11T17:26:09.529Z,100265.66
2024-03-11T17:31:13.799Z,100265.03
2024-03-11T17:36:16.940Z,100263.59
2024-03-11T17:41:19.039Z,100277.22
2024-03-11T17:46:20.613Z,100281.81
2024-03-11T17:51:23.494Z,100273.31
2024-03-11T17:56:25.013Z,100291.56
2024-03-11T18:01:30.303Z,100262.84
2024-03-11T18:06:32.134Z,100264.16
2024-03-11T18:11:34.324Z,100279.50
2024-03-11T18:16:37.124Z,100282.06
2024-03-11T18:21:39.909Z,100288.16
2024-03-11T18:26:44.151Z,100311.91
2024-03-11T18:31:45.719Z,100307.28
2024-03-11T18:36:49.629Z,100316.13
2024-03-11T18:41:52.951Z,100311.88
2024-03-11T18:46:54.464Z,100309.94
2024-03-11T18:51:56.418Z,100307.03
2024-03-11T18:57:04.004Z,100321.78
2024-03-11T19:02:05.626Z,100322.34
2024-03-11T19:07:12.885Z,100328.84
2024-03-11T19:12:14.428Z,100332.69
2024-03-11T19:17:17.286Z,100327.63
2024-03-11T19:22:19.215Z,100347.03
2024-03-11T19:27:21.001Z,100347.31
2024-03-11T19:32:22.716Z,100354.91
2024-03-11T19:38:24.669Z,100363.91
2024-03-11T19:44:05.955Z,100365.25
2024-03-11T19:49:42.202Z,100360.78
2024-03-11T19:55:02.356Z,100379.13
2024-03-11T20:00:37.202Z,100380.00
2024-03-11T20:06:06.494Z,100385.03
2024-03-11T20:11:26.137Z,100389.16
2024-03-11T20:17:01.596Z,100406.72
2024-03-11T20:22:18.115Z,100406.50
2024-03-11T20:27:26.472Z,100407.06
2024-03-11T20:32:35.469Z,100409.78
2024-03-11T20:37:37.012Z,100413.25
2024-03-11T20:42:38.577Z,100425.72
2024-03-11T20:47:40.826Z,100421.22
2024-03-11T20:52:44.697Z,100433.94
2024-03-11T20:57:47.784Z,100439.53
2024-03-11T21:02:51.309Z,100443.81
2024-03-11T21:07:53.065Z,100433.03
2024-03-11T21:12:55.582Z,100449.41
2024-03-11T21:17:57.241Z,100441.06
2024-03-11T21:23:10.773Z,100451.84
2024-03-11T21:28:12.897Z,100464.44
2024-03-11T21:33:14.552Z,100463.25
2024-03-11T21:38:22.317Z,100468.34
2024-03-11T21:43:29.350Z,100465.50
2024-03-11T21:48:31.202Z,100469.44
2024-03-11T21:53:33.122Z,100460.69
2024-03-11T21:58:35.670Z,100462.25
2024-03-11T22:03:37.224Z,100462.72
2024-03-11T22:08:39.075Z,100459.13
2024-03-11T22:13:40.599Z,100457.22
2024-03-11T22:18:44.951Z,100461.19
2024-03-11T22:23:46.494Z,100470.19
2024-03-11T22:28:48.088Z,100472.59
2024-03-11T22:33:50.624Z,100481.16
2024-03-11T22:38:53.850Z,100480.16
2024-03-11T22:43:55.367Z,100473.88
2024-03-11T22:49:06.010Z,100482.34
2024-03-11T22:54:10.941Z,100485.00
2024-03-11T22:59:12.898Z,100480.09
2024-03-11T23:04:14.468Z,100484.56
2024-03-11T23:09:17.076Z,100482.13
2024-03-11T23:14:21.580Z,100485.78
2024-03-11T23:19:24.725Z,100481.06
2024-03-11T23:24:26.565Z,100495.91
2024-03-11T23:29:28.111Z,100504.31
2024-03-11T23:34:29.695Z,100509.69
2024-03-11T23:39:31.778Z,100510.19
2024-03-11T23:44:33.350Z,100508.09
2024-03-11T23:49:34.869Z,100518.69
2024-03-11T23:54:36.425Z,100522.59
2024-03-11T23:59:37.956Z,100527.06
